sensor_id;sensor_type;location;lat;lon;timestamp;pressure;altitude;pressure_sealevel;temperature;humidity
22753;BME280;11543;43.144;24.684;2023-08-21T00:01:59;99007.56;;;25.97;49.61
22753;BME280;11543;43.144;24.684;2023-08-21T00:04:24;99000.31;;;25.91;49.46
22753;BME280;11543;43.144;24.684;2023-08-21T00:06:50;98991.75;;;25.88;49.48
22753;BME280;11543;43.144;24.684;2023-08-21T00:09:15;99004.72;;;25.92;49.51
22753;BME280;11543;43.144;24.684;2023-08-21T00:11:41;98981.41;;;25.78;49.72
22753;BME280;11543;43.144;24.684;2023-08-21T00:14:06;98985.81;;;25.79;50.01
22753;BME280;11543;43.144;24.684;2023-08-21T00:16:32;98993.00;;;25.80;50.19
22753;BME280;11543;43.144;24.684;2023-08-21T00:18:57;98998.00;;;25.83;49.98
22753;BME280;11543;43.144;24.684;2023-08-21T00:21:23;98996.56;;;25.81;50.28
22753;BME280;11543;43.144;24.684;2023-08-21T00:23:49;98997.91;;;25.78;49.88
22753;BME280;11543;43.144;24.684;2023-08-21T00:26:14;98980.16;;;25.69;50.36
22753;BME280;11543;43.144;24.684;2023-08-21T00:28:40;98996.66;;;25.69;50.42
22753;BME280;11543;43.144;24.684;2023-08-21T00:31:05;99000.00;;;25.71;50.62
22753;BME280;11543;43.144;24.684;2023-08-21T00:33:32;98996.06;;;25.67;50.27
22753;BME280;11543;43.144;24.684;2023-08-21T00:35:57;98987.63;;;25.57;50.38
22753;BME280;11543;43.144;24.684;2023-08-21T00:38:23;98994.03;;;25.62;50.28
22753;BME280;11543;43.144;24.684;2023-08-21T00:40:49;98991.53;;;25.61;50.34
22753;BME280;11543;43.144;24.684;2023-08-21T00:43:15;98993.22;;;25.62;50.27
22753;BME280;11543;43.144;24.684;2023-08-21T00:45:43;98988.53;;;25.62;50.06
22753;BME280;11543;43.144;24.684;2023-08-21T00:48:09;98995.00;;;25.68;50.30
22753;BME280;11543;43.144;24.684;2023-08-21T00:50:36;98973.22;;;25.50;50.07
22753;BME280;11543;43.144;24.684;2023-08-21T00:53:01;98992.72;;;25.65;50.22
22753;BME280;11543;43.144;24.684;2023-08-21T00:55:29;98983.22;;;25.56;50.10
22753;BME280;11543;43.144;24.684;2023-08-21T00:57:54;98977.53;;;25.46;50.79
22753;BME280;11543;43.144;24.684;2023-08-21T01:00:20;98985.53;;;25.47;50.74
22753;BME280;11543;43.144;24.684;2023-08-21T01:02:47;98977.47;;;25.40;51.16
22753;BME280;11543;43.144;24.684;2023-08-21T01:05:12;98972.38;;;25.32;51.11
22753;BME280;11543;43.144;24.684;2023-08-21T01:08:01;98974.53;;;25.30;51.56
22753;BME280;11543;43.144;24.684;2023-08-21T01:10:52;98967.69;;;25.16;51.88
22753;BME280;11543;43.144;24.684;2023-08-21T01:13:49;98993.16;;;25.28;51.77
22753;BME280;11543;43.144;24.684;2023-08-21T01:16:21;98990.81;;;25.20;51.98
22753;BME280;11543;43.144;24.684;2023-08-21T01:18:47;98984.16;;;25.16;52.10
22753;BME280;11543;43.144;24.684;2023-08-21T01:21:14;99007.41;;;25.14;52.43
22753;BME280;11543;43.144;24.684;2023-08-21T01:23:41;98994.44;;;25.09;52.32
22753;BME280;11543;43.144;24.684;2023-08-21T01:26:09;98998.25;;;25.08;52.66
22753;BME280;11543;43.144;24.684;2023-08-21T01:28:35;98997.41;;;25.07;52.50
22753;BME280;11543;43.144;24.684;2023-08-21T01:31:23;98996.59;;;25.07;52.33
22753;BME280;11543;43.144;24.684;2023-08-21T01:33:55;98990.75;;;25.03;52.16
22753;BME280;11543;43.144;24.684;2023-08-21T01:36:24;98989.91;;;25.03;52.53
22753;BME280;11543;43.144;24.684;2023-08-21T01:38:50;98993.59;;;24.97;53.12
22753;BME280;11543;43.144;24.684;2023-08-21T01:41:16;98989.69;;;24.93;53.23
22753;BME280;11543;43.144;24.684;2023-08-21T01:43:41;99003.66;;;25.03;52.88
22753;BME280;11543;43.144;24.684;2023-08-21T01:46:07;99003.66;;;25.03;52.49
22753;BME280;11543;43.144;24.684;2023-08-21T01:48:33;98998.06;;;24.98;52.72
22753;BME280;11543;43.144;24.684;2023-08-21T01:51:01;98994.69;;;24.96;52.71
22753;BME280;11543;43.144;24.684;2023-08-21T01:53:27;99016.88;;;25.06;52.31
22753;BME280;11543;43.144;24.684;2023-08-21T01:55:53;98999.22;;;25.02;52.33
22753;BME280;11543;43.144;24.684;2023-08-21T01:58:18;98992.06;;;25.01;52.28
22753;BME280;11543;43.144;24.684;2023-08-21T02:00:47;99004.72;;;25.02;52.17
22753;BME280;11543;43.144;24.684;2023-08-21T02:03:13;99006.88;;;25.00;52.37
22753;BME280;11543;43.144;24.684;2023-08-21T02:05:39;99005.81;;;25.01;52.47
22753;BME280;11543;43.144;24.684;2023-08-21T02:08:11;99012.38;;;25.00;52.39
22753;BME280;11543;43.144;24.684;2023-08-21T02:10:37;98980.19;;;24.84;52.42
22753;BME280;11543;43.144;24.684;2023-08-21T02:13:03;99006.66;;;24.90;52.80
22753;BME280;11543;43.144;24.684;2023-08-21T02:15:28;98996.66;;;24.84;53.03
22753;BME280;11543;43.144;24.684;2023-08-21T02:17:54;99007.00;;;24.93;52.58
22753;BME280;11543;43.144;24.684;2023-08-21T02:20:20;98999.97;;;24.86;52.54
22753;BME280;11543;43.144;24.684;2023-08-21T02:22:45;99011.53;;;24.88;52.59
22753;BME280;11543;43.144;24.684;2023-08-21T02:25:11;98999.38;;;24.84;52.61
22753;BME280;11543;43.144;24.684;2023-08-21T02:27:36;99006.31;;;24.86;52.59
22753;BME280;11543;43.144;24.684;2023-08-21T02:30:02;99013.94;;;24.84;52.70
22753;BME280;11543;43.144;24.684;2023-08-21T02:32:28;99007.63;;;24.84;52.73
22753;BME280;11543;43.144;24.684;2023-08-21T02:34:54;98993.78;;;24.78;52.56
22753;BME280;11543;43.144;24.684;2023-08-21T02:37:19;99013.09;;;24.84;52.41
22753;BME280;11543;43.144;24.684;2023-08-21T02:39:45;98998.09;;;24.74;52.82
22753;BME280;11543;43.144;24.684;2023-08-21T02:42:11;98993.59;;;24.68;52.79
22753;BME280;11543;43.144;24.684;2023-08-21T02:44:36;99012.28;;;24.83;52.44
22753;BME280;11543;43.144;24.684;2023-08-21T02:47:02;99009.81;;;24.70;52.71
22753;BME280;11543;43.144;24.684;2023-08-21T02:49:27;98987.78;;;24.53;53.37
22753;BME280;11543;43.144;24.684;2023-08-21T02:51:53;98992.44;;;24.53;53.56
22753;BME280;11543;43.144;24.684;2023-08-21T02:54:18;99006.50;;;24.56;53.49
22753;BME280;11543;43.144;24.684;2023-08-21T02:56:44;99004.34;;;24.58;53.52
22753;BME280;11543;43.144;24.684;2023-08-21T02:59:09;99015.31;;;24.58;53.69
22753;BME280;11543;43.144;24.684;2023-08-21T03:01:35;98998.66;;;24.48;53.25
22753;BME280;11543;43.144;24.684;2023-08-21T03:04:01;99019.13;;;24.57;53.37
22753;BME280;11543;43.144;24.684;2023-08-21T03:06:27;99003.31;;;24.36;53.40
22753;BME280;11543;43.144;24.684;2023-08-21T03:08:52;99028.00;;;24.36;53.62
22753;BME280;11543;43.144;24.684;2023-08-21T03:11:18;99032.53;;;24.42;53.80
22753;BME280;11543;43.144;24.684;2023-08-21T03:13:43;99013.34;;;24.30;53.77
22753;BME280;11543;43.144;24.684;2023-08-21T03:16:09;99029.66;;;24.37;53.78
22753;BME280;11543;43.144;24.684;2023-08-21T03:18:54;99037.41;;;24.40;53.82
22753;BME280;11543;43.144;24.684;2023-08-21T03:21:20;99030.16;;;24.34;53.63
22753;BME280;11543;43.144;24.684;2023-08-21T03:23:51;99021.19;;;24.27;53.85
22753;BME280;11543;43.144;24.684;2023-08-21T03:26:17;99033.97;;;24.33;54.00
22753;BME280;11543;43.144;24.684;2023-08-21T03:28:42;99033.38;;;24.31;53.92
22753;BME280;11543;43.144;24.684;2023-08-21T03:31:08;99034.69;;;24.28;54.10
22753;BME280;11543;43.144;24.684;2023-08-21T03:33:33;99032.47;;;24.19;54.26
22753;BME280;11543;43.144;24.684;2023-08-21T03:35:59;99028.41;;;24.09;54.13
22753;BME280;11543;43.144;24.684;2023-08-21T03:38:24;99041.66;;;24.12;54.20
22753;BME280;11543;43.144;24.684;2023-08-21T03:40:50;99032.22;;;24.08;54.58
22753;BME280;11543;43.144;24.684;2023-08-21T03:43:15;99039.03;;;24.06;54.86
22753;BME280;11543;43.144;24.684;2023-08-21T03:45:41;99038.66;;;24.02;55.31
22753;BME280;11543;43.144;24.684;2023-08-21T03:48:06;99027.09;;;23.89;55.48
22753;BME280;11543;43.144;24.684;2023-08-21T03:50:32;99005.28;;;23.82;55.59
22753;BME280;11543;43.144;24.684;2023-08-21T03:52:57;99030.69;;;23.89;55.62
22753;BME280;11543;43.144;24.684;2023-08-21T03:55:22;99025.06;;;23.84;55.61
22753;BME280;11543;43.144;24.684;2023-08-21T03:57:48;99015.06;;;23.78;55.48
22753;BME280;11543;43.144;24.684;2023-08-21T04:00:14;99032.81;;;23.87;55.42
22753;BME280;11543;43.144;24.684;2023-08-21T04:02:40;99032.94;;;23.92;55.44
22753;BME280;11543;43.144;24.684;2023-08-21T04:05:06;99020.41;;;23.85;55.56
22753;BME280;11543;43.144;24.684;2023-08-21T04:07:31;99021.13;;;23.80;55.82
22753;BME280;11543;43.144;24.684;2023-08-21T04:09:57;99028.41;;;23.86;55.59
22753;BME280;11543;43.144;24.684;2023-08-21T04:12:22;99041.03;;;23.99;55.27
22753;BME280;11543;43.144;24.684;2023-08-21T04:14:48;99060.00;;;24.00;55.62
22753;BME280;11543;43.144;24.684;2023-08-21T04:17:13;99043.19;;;23.97;55.35
22753;BME280;11543;43.144;24.684;2023-08-21T04:19:39;99031.28;;;23.91;55.61
22753;BME280;11543;43.144;24.684;2023-08-21T04:22:06;99044.16;;;24.02;55.50
22753;BME280;11543;43.144;24.684;2023-08-21T04:24:32;99043.44;;;23.95;55.63
22753;BME280;11543;43.144;24.684;2023-08-21T04:26:57;99033.78;;;23.93;55.62
22753;BME280;11543;43.144;24.684;2023-08-21T04:29:23;99048.06;;;23.95;55.78
22753;BME280;11543;43.144;24.684;2023-08-21T04:31:49;99056.91;;;23.97;55.92
22753;BME280;11543;43.144;24.684;2023-08-21T04:34:14;99053.44;;;24.01;55.85
22753;BME280;11543;43.144;24.684;2023-08-21T04:36:40;99046.03;;;23.90;56.06
22753;BME280;11543;43.144;24.684;2023-08-21T04:39:05;99032.09;;;23.80;56.20
22753;BME280;11543;43.144;24.684;2023-08-21T04:41:32;99037.22;;;23.88;56.44
22753;BME280;11543;43.144;24.684;2023-08-21T04:43:57;99037.81;;;23.90;56.16
22753;BME280;11543;43.144;24.684;2023-08-21T04:46:23;99027.22;;;23.94;56.03
22753;BME280;11543;43.144;24.684;2023-08-21T04:48:48;99063.69;;;24.18;56.39
22753;BME280;11543;43.144;24.684;2023-08-21T04:51:14;99066.56;;;24.23;56.10
22753;BME280;11543;43.144;24.684;2023-08-21T04:53:40;99069.50;;;24.28;56.04
22753;BME280;11543;43.144;24.684;2023-08-21T04:56:05;99045.94;;;24.20;56.30
22753;BME280;11543;43.144;24.684;2023-08-21T04:58:31;99045.94;;;24.20;56.33
22753;BME280;11543;43.144;24.684;2023-08-21T05:00:56;99069.13;;;24.36;56.21
22753;BME280;11543;43.144;24.684;2023-08-21T05:03:22;99055.91;;;24.33;56.21
22753;BME280;11543;43.144;24.684;2023-08-21T05:05:54;99067.69;;;24.45;56.24
22753;BME280;11543;43.144;24.684;2023-08-21T05:08:25;99082.47;;;24.56;55.92
22753;BME280;11543;43.144;24.684;2023-08-21T05:10:55;99071.84;;;24.59;56.38
22753;BME280;11543;43.144;24.684;2023-08-21T05:13:21;99073.03;;;24.63;56.03
22753;BME280;11543;43.144;24.684;2023-08-21T05:15:51;99089.84;;;24.78;55.89
22753;BME280;11543;43.144;24.684;2023-08-21T05:18:18;99086.72;;;24.87;55.78
22753;BME280;11543;43.144;24.684;2023-08-21T05:20:44;99079.19;;;24.94;55.73
22753;BME280;11543;43.144;24.684;2023-08-21T05:23:09;99067.88;;;24.90;55.84
22753;BME280;11543;43.144;24.684;2023-08-21T05:25:35;99075.38;;;24.95;55.53
22753;BME280;11543;43.144;24.684;2023-08-21T05:28:03;99097.81;;;25.15;55.34
22753;BME280;11543;43.144;24.684;2023-08-21T05:30:30;99087.28;;;25.12;55.43
22753;BME280;11543;43.144;24.684;2023-08-21T05:32:56;99098.38;;;25.29;55.17
22753;BME280;11543;43.144;24.684;2023-08-21T05:35:22;99087.13;;;25.30;55.63
22753;BME280;11543;43.144;24.684;2023-08-21T05:37:48;99094.59;;;25.47;55.22
22753;BME280;11543;43.144;24.684;2023-08-21T05:40:14;99105.53;;;25.58;55.37
22753;BME280;11543;43.144;24.684;2023-08-21T05:42:39;99102.63;;;25.65;54.94
22753;BME280;11543;43.144;24.684;2023-08-21T05:45:07;99086.13;;;25.65;54.75
22753;BME280;11543;43.144;24.684;2023-08-21T05:47:33;99088.53;;;25.73;54.82
22753;BME280;11543;43.144;24.684;2023-08-21T05:49:58;99102.53;;;25.88;54.73
22753;BME280;11543;43.144;24.684;2023-08-21T05:52:23;99082.22;;;25.89;54.48
22753;BME280;11543;43.144;24.684;2023-08-21T05:54:49;99087.28;;;25.97;53.99
22753;BME280;11543;43.144;24.684;2023-08-21T05:57:15;99092.25;;;26.12;53.96
22753;BME280;11543;43.144;24.684;2023-08-21T05:59:47;99097.06;;;26.22;53.83
22753;BME280;11543;43.144;24.684;2023-08-21T06:02:14;99098.09;;;26.32;53.79
22753;BME280;11543;43.144;24.684;2023-08-21T06:04:40;99096.91;;;26.45;53.81
22753;BME280;11543;43.144;24.684;2023-08-21T06:07:07;99072.91;;;26.41;53.50
22753;BME280;11543;43.144;24.684;2023-08-21T06:09:33;99093.88;;;26.63;53.44
22753;BME280;11543;43.144;24.684;2023-08-21T06:12:05;99084.63;;;26.70;53.32
22753;BME280;11543;43.144;24.684;2023-08-21T06:14:30;99060.41;;;26.72;53.11
22753;BME280;11543;43.144;24.684;2023-08-21T06:16:57;99087.00;;;27.00;52.72
22753;BME280;11543;43.144;24.684;2023-08-21T06:19:23;99096.03;;;27.17;52.70
22753;BME280;11543;43.144;24.684;2023-08-21T06:21:48;99083.09;;;27.17;52.46
22753;BME280;11543;43.144;24.684;2023-08-21T06:24:14;99080.19;;;27.29;52.43
22753;BME280;11543;43.144;24.684;2023-08-21T06:26:40;99080.56;;;27.38;52.04
22753;BME280;11543;43.144;24.684;2023-08-21T06:29:07;99078.50;;;27.50;51.91
22753;BME280;11543;43.144;24.684;2023-08-21T06:31:33;99097.50;;;27.73;51.59
22753;BME280;11543;43.144;24.684;2023-08-21T06:33:58;99088.22;;;27.79;51.73
22753;BME280;11543;43.144;24.684;2023-08-21T06:36:24;99086.63;;;27.83;51.34
22753;BME280;11543;43.144;24.684;2023-08-21T06:38:50;99101.69;;;28.03;51.50
22753;BME280;11543;43.144;24.684;2023-08-21T06:41:18;99110.59;;;28.15;51.19
22753;BME280;11543;43.144;24.684;2023-08-21T06:43:45;99105.78;;;28.27;50.83
22753;BME280;11543;43.144;24.684;2023-08-21T06:46:10;99093.00;;;28.21;50.69
22753;BME280;11543;43.144;24.684;2023-08-21T06:48:38;99109.22;;;28.44;50.24
22753;BME280;11543;43.144;24.684;2023-08-21T06:51:04;99107.06;;;28.51;50.36
22753;BME280;11543;43.144;24.684;2023-08-21T06:53:29;99099.38;;;28.59;49.78
22753;BME280;11543;43.144;24.684;2023-08-21T06:55:55;99087.28;;;28.65;49.13
22753;BME280;11543;43.144;24.684;2023-08-21T06:58:21;99112.84;;;28.87;48.67
22753;BME280;11543;43.144;24.684;2023-08-21T07:00:46;99099.63;;;28.89;48.29
22753;BME280;11543;43.144;24.684;2023-08-21T07:03:12;99099.66;;;28.99;48.23
22753;BME280;11543;43.144;24.684;2023-08-21T07:05:37;99100.84;;;29.13;48.22
22753;BME280;11543;43.144;24.684;2023-08-21T07:08:03;99108.63;;;29.27;48.14
22753;BME280;11543;43.144;24.684;2023-08-21T07:10:29;99107.56;;;29.38;47.59
22753;BME280;11543;43.144;24.684;2023-08-21T07:12:55;99098.25;;;29.49;46.65
22753;BME280;11543;43.144;24.684;2023-08-21T07:15:21;99086.38;;;29.48;45.89
22753;BME280;11543;43.144;24.684;2023-08-21T07:17:46;99100.50;;;29.67;45.58
22753;BME280;11543;43.144;24.684;2023-08-21T07:20:12;99101.09;;;29.90;44.96
22753;BME280;11543;43.144;24.684;2023-08-21T07:22:38;99089.50;;;30.08;44.65
22753;BME280;11543;43.144;24.684;2023-08-21T07:25:04;99085.38;;;30.16;43.98
22753;BME280;11543;43.144;24.684;2023-08-21T07:27:30;99093.94;;;30.34;43.70
22753;BME280;11543;43.144;24.684;2023-08-21T07:29:56;99080.09;;;30.34;43.75
22753;BME280;11543;43.144;24.684;2023-08-21T07:32:21;99088.41;;;30.55;42.55
22753;BME280;11543;43.144;24.684;2023-08-21T07:34:47;99092.28;;;30.64;42.41
22753;BME280;11543;43.144;24.684;2023-08-21T07:37:12;99083.69;;;30.65;42.36
22753;BME280;11543;43.144;24.684;2023-08-21T07:39:38;99090.31;;;30.80;42.22
22753;BME280;11543;43.144;24.684;2023-08-21T07:42:04;99082.22;;;30.98;42.01
22753;BME280;11543;43.144;24.684;2023-08-21T07:44:29;99074.41;;;31.11;41.82
22753;BME280;11543;43.144;24.684;2023-08-21T07:46:55;99088.19;;;31.36;41.58
22753;BME280;11543;43.144;24.684;2023-08-21T07:49:20;99086.75;;;31.49;40.94
22753;BME280;11543;43.144;24.684;2023-08-21T07:51:46;99076.38;;;31.70;40.44
22753;BME280;11543;43.144;24.684;2023-08-21T07:54:11;99082.38;;;31.87;40.18
22753;BME280;11543;43.144;24.684;2023-08-21T07:56:37;99075.00;;;32.06;39.72
22753;BME280;11543;43.144;24.684;2023-08-21T07:59:04;99073.28;;;32.15;38.51
22753;BME280;11543;43.144;24.684;2023-08-21T08:01:30;99078.94;;;32.39;38.42
22753;BME280;11543;43.144;24.684;2023-08-21T08:03:55;99079.06;;;32.53;37.55
22753;BME280;11543;43.144;24.684;2023-08-21T08:06:21;99073.53;;;32.77;36.83
22753;BME280;11543;43.144;24.684;2023-08-21T08:08:46;99065.88;;;32.92;37.04
22753;BME280;11543;43.144;24.684;2023-08-21T08:11:12;99054.66;;;33.03;36.74
22753;BME280;11543;43.144;24.684;2023-08-21T08:13:37;99061.63;;;33.24;35.57
22753;BME280;11543;43.144;24.684;2023-08-21T08:16:03;99070.22;;;33.46;35.25
22753;BME280;11543;43.144;24.684;2023-08-21T08:18:28;99070.31;;;33.60;34.82
22753;BME280;11543;43.144;24.684;2023-08-21T08:20:54;99063.78;;;33.70;34.97
22753;BME280;11543;43.144;24.684;2023-08-21T08:23:20;99054.13;;;33.81;34.95
22753;BME280;11543;43.144;24.684;2023-08-21T08:25:45;99061.03;;;33.89;35.30
22753;BME280;11543;43.144;24.684;2023-08-21T08:28:11;99063.88;;;34.02;33.95
22753;BME280;11543;43.144;24.684;2023-08-21T08:30:36;99054.72;;;34.15;33.65
22753;BME280;11543;43.144;24.684;2023-08-21T08:33:02;99055.00;;;34.33;33.28
22753;BME280;11543;43.144;24.684;2023-08-21T08:35:28;99056.47;;;34.44;34.50
22753;BME280;11543;43.144;24.684;2023-08-21T08:37:53;99041.31;;;34.50;32.76
22753;BME280;11543;43.144;24.684;2023-08-21T08:40:19;99057.59;;;34.75;32.23
22753;BME280;11543;43.144;24.684;2023-08-21T08:42:44;99041.88;;;34.79;31.99
22753;BME280;11543;43.144;24.684;2023-08-21T08:45:12;99030.03;;;34.88;31.92
22753;BME280;11543;43.144;24.684;2023-08-21T08:47:38;99035.72;;;35.10;32.10
22753;BME280;11543;43.144;24.684;2023-08-21T08:50:06;99040.84;;;35.30;31.90
22753;BME280;11543;43.144;24.684;2023-08-21T08:52:39;99046.00;;;35.51;31.08
22753;BME280;11543;43.144;24.684;2023-08-21T08:55:04;99043.88;;;35.70;30.38
22753;BME280;11543;43.144;24.684;2023-08-21T08:57:32;99015.06;;;35.61;31.50
22753;BME280;11543;43.144;24.684;2023-08-21T08:59:57;99029.16;;;35.78;31.20
22753;BME280;11543;43.144;24.684;2023-08-21T09:02:25;99020.94;;;35.95;30.93
22753;BME280;11543;43.144;24.684;2023-08-21T09:04:52;99022.59;;;36.19;30.60
22753;BME280;11543;43.144;24.684;2023-08-21T09:07:17;99020.56;;;36.33;30.03
22753;BME280;11543;43.144;24.684;2023-08-21T09:09:46;99024.94;;;36.48;29.67
22753;BME280;11543;43.144;24.684;2023-08-21T09:12:14;99015.31;;;36.62;29.50
22753;BME280;11543;43.144;24.684;2023-08-21T09:14:40;99015.00;;;36.73;29.23
22753;BME280;11543;43.144;24.684;2023-08-21T09:17:06;99020.19;;;36.88;29.70
22753;BME280;11543;43.144;24.684;2023-08-21T09:19:32;99011.84;;;37.05;29.44
22753;BME280;11543;43.144;24.684;2023-08-21T09:21:58;98997.38;;;37.20;29.32
22753;BME280;11543;43.144;24.684;2023-08-21T09:24:25;98994.47;;;37.25;29.14
22753;BME280;11543;43.144;24.684;2023-08-21T09:26:51;98998.47;;;37.33;28.60
22753;BME280;11543;43.144;24.684;2023-08-21T09:29:20;98995.50;;;37.47;28.87
22753;BME280;11543;43.144;24.684;2023-08-21T09:31:46;99002.41;;;37.67;28.23
22753;BME280;11543;43.144;24.684;2023-08-21T09:34:12;98979.22;;;37.75;27.97
22753;BME280;11543;43.144;24.684;2023-08-21T09:36:38;98977.56;;;37.82;27.41
22753;BME280;11543;43.144;24.684;2023-08-21T09:39:04;98984.63;;;37.88;26.82
22753;BME280;11543;43.144;24.684;2023-08-21T09:41:33;98984.63;;;37.88;27.07
22753;BME280;11543;43.144;24.684;2023-08-21T09:44:01;98983.13;;;37.91;26.55
22753;BME280;11543;43.144;24.684;2023-08-21T09:46:29;98985.59;;;37.92;26.72
22753;BME280;11543;43.144;24.684;2023-08-21T09:48:55;98989.22;;;38.02;26.68
22753;BME280;11543;43.144;24.684;2023-08-21T09:51:21;98975.88;;;37.90;27.38
22753;BME280;11543;43.144;24.684;2023-08-21T09:53:49;98995.31;;;38.21;27.55
22753;BME280;11543;43.144;24.684;2023-08-21T09:56:19;98977.16;;;38.27;27.03
22753;BME280;11543;43.144;24.684;2023-08-21T09:58:47;98980.41;;;38.46;26.43
22753;BME280;11543;43.144;24.684;2023-08-21T10:01:15;98974.53;;;38.69;26.46
22753;BME280;11543;43.144;24.684;2023-08-21T10:03:43;98971.97;;;38.84;25.76
22753;BME280;11543;43.144;24.684;2023-08-21T10:06:16;98971.72;;;38.98;25.57
22753;BME280;11543;43.144;24.684;2023-08-21T10:08:44;98973.72;;;39.06;25.50
22753;BME280;11543;43.144;24.684;2023-08-21T10:11:12;98978.19;;;39.07;25.39
22753;BME280;11543;43.144;24.684;2023-08-21T10:13:38;98965.31;;;39.06;25.50
22753;BME280;11543;43.144;24.684;2023-08-21T10:16:05;98971.91;;;39.02;25.01
22753;BME280;11543;43.144;24.684;2023-08-21T10:18:33;98964.06;;;38.86;25.51
22753;BME280;11543;43.144;24.684;2023-08-21T10:21:17;98965.03;;;38.91;25.19
22753;BME280;11543;43.144;24.684;2023-08-21T10:23:50;98970.91;;;38.98;25.68
22753;BME280;11543;43.144;24.684;2023-08-21T10:26:19;98958.06;;;39.05;25.31
22753;BME280;11543;43.144;24.684;2023-08-21T10:29:01;98961.06;;;39.21;25.54
22753;BME280;11543;43.144;24.684;2023-08-21T10:31:37;98948.41;;;39.36;25.05
22753;BME280;11543;43.144;24.684;2023-08-21T10:34:11;98959.78;;;39.60;25.27
22753;BME280;11543;43.144;24.684;2023-08-21T10:39:20;98931.53;;;39.77;23.85
22753;BME280;11543;43.144;24.684;2023-08-21T10:42:12;98936.56;;;39.84;23.96
22753;BME280;11543;43.144;24.684;2023-08-21T10:49:51;98928.16;;;40.17;23.88
22753;BME280;11543;43.144;24.684;2023-08-21T10:52:29;98923.72;;;40.28;24.33
22753;BME280;11543;43.144;24.684;2023-08-21T10:54:58;98918.38;;;40.35;23.33
22753;BME280;11543;43.144;24.684;2023-08-21T10:57:25;98931.84;;;40.54;23.51
22753;BME280;11543;43.144;24.684;2023-08-21T10:59:56;98925.41;;;40.66;23.50
22753;BME280;11543;43.144;24.684;2023-08-21T11:02:25;98911.91;;;40.71;23.01
22753;BME280;11543;43.144;24.684;2023-08-21T11:04:52;98920.47;;;40.75;22.73
22753;BME280;11543;43.144;24.684;2023-08-21T11:07:18;98894.34;;;40.62;22.89
22753;BME280;11543;43.144;24.684;2023-08-21T11:09:44;98892.47;;;40.54;22.54
22753;BME280;11543;43.144;24.684;2023-08-21T11:12:13;98909.81;;;40.56;22.88
22753;BME280;11543;43.144;24.684;2023-08-21T11:14:39;98899.03;;;40.46;22.89
22753;BME280;11543;43.144;24.684;2023-08-21T11:17:09;98907.59;;;40.50;22.67
22753;BME280;11543;43.144;24.684;2023-08-21T11:19:35;98898.34;;;40.37;22.64
22753;BME280;11543;43.144;24.684;2023-08-21T11:22:02;98887.66;;;40.30;22.95
22753;BME280;11543;43.144;24.684;2023-08-21T11:24:50;98896.81;;;40.39;22.78
22753;BME280;11543;43.144;24.684;2023-08-21T11:27:19;98903.81;;;40.33;22.76
22753;BME280;11543;43.144;24.684;2023-08-21T11:29:47;98896.94;;;40.43;22.59
22753;BME280;11543;43.144;24.684;2023-08-21T11:32:17;98890.84;;;40.53;22.70
22753;BME280;11543;43.144;24.684;2023-08-21T11:34:56;98879.69;;;40.57;22.19
22753;BME280;11543;43.144;24.684;2023-08-21T11:37:26;98891.41;;;40.59;22.79
22753;BME280;11543;43.144;24.684;2023-08-21T11:39:57;98891.41;;;40.71;22.97
22753;BME280;11543;43.144;24.684;2023-08-21T11:42:29;98877.38;;;40.83;22.44
22753;BME280;11543;43.144;24.684;2023-08-21T11:44:55;98887.19;;;41.01;22.54
22753;BME280;11543;43.144;24.684;2023-08-21T11:47:22;98881.63;;;41.17;22.38
22753;BME280;11543;43.144;24.684;2023-08-21T11:49:49;98880.53;;;41.34;22.15
22753;BME280;11543;43.144;24.684;2023-08-21T11:52:21;98874.31;;;41.56;21.67
22753;BME280;11543;43.144;24.684;2023-08-21T11:54:49;98878.41;;;41.71;21.47
22753;BME280;11543;43.144;24.684;2023-08-21T11:57:14;98862.50;;;41.79;20.84
22753;BME280;11543;43.144;24.684;2023-08-21T11:59:41;98880.53;;;41.90;21.06
22753;BME280;11543;43.144;24.684;2023-08-21T12:02:14;98862.25;;;41.99;20.88
22753;BME280;11543;43.144;24.684;2023-08-21T12:04:43;98868.91;;;42.07;20.73
22753;BME280;11543;43.144;24.684;2023-08-21T12:07:09;98873.19;;;42.17;21.09
22753;BME280;11543;43.144;24.684;2023-08-21T12:09:35;98874.91;;;42.21;20.97
22753;BME280;11543;43.144;24.684;2023-08-21T12:12:02;98851.28;;;42.10;20.83
22753;BME280;11543;43.144;24.684;2023-08-21T12:14:28;98854.34;;;42.37;20.11
22753;BME280;11543;43.144;24.684;2023-08-21T12:16:54;98848.38;;;42.54;20.92
22753;BME280;11543;43.144;24.684;2023-08-21T12:19:21;98843.94;;;42.72;20.31
22753;BME280;11543;43.144;24.684;2023-08-21T12:21:47;98852.47;;;42.91;20.33
22753;BME280;11543;43.144;24.684;2023-08-21T12:24:14;98847.88;;;43.03;20.15
22753;BME280;11543;43.144;24.684;2023-08-21T12:26:39;98842.06;;;43.15;19.75
22753;BME280;11543;43.144;24.684;2023-08-21T12:29:05;98844.22;;;43.21;19.50
22753;BME280;11543;43.144;24.684;2023-08-21T12:31:30;98843.84;;;43.04;19.60
22753;BME280;11543;43.144;24.684;2023-08-21T12:33:56;98849.19;;;42.89;19.97
22753;BME280;11543;43.144;24.684;2023-08-21T12:36:21;98848.53;;;42.61;20.18
22753;BME280;11543;43.144;24.684;2023-08-21T12:38:47;98839.16;;;42.41;20.38
22753;BME280;11543;43.144;24.684;2023-08-21T12:41:13;98845.88;;;42.37;20.48
22753;BME280;11543;43.144;24.684;2023-08-21T12:43:38;98835.16;;;42.26;20.24
22753;BME280;11543;43.144;24.684;2023-08-21T12:46:04;98822.06;;;42.03;20.30
22753;BME280;11543;43.144;24.684;2023-08-21T12:48:30;98834.44;;;41.98;19.98
22753;BME280;11543;43.144;24.684;2023-08-21T12:50:55;98828.69;;;41.79;20.38
22753;BME280;11543;43.144;24.684;2023-08-21T12:53:21;98819.59;;;41.70;20.69
22753;BME280;11543;43.144;24.684;2023-08-21T12:55:46;98821.44;;;41.78;20.98
22753;BME280;11543;43.144;24.684;2023-08-21T12:58:12;98806.41;;;41.89;20.83